Time;durP1;ratioP1;P1;durP2;ratioP2;P2;SDS_P1;SDS_P2;PMS_P1;PMS_P2;Temp;Humidity;BMP_temperature;BMP_pressure;BME280_temperature;BME280_humidity;BME280_pressure;Samples;Min_cycle;Max_cycle;Signal;HPM_P1;HPM_P2
2021/01/28 00:01:54;;;;;;;106.23;25.53;;;;;;;20.99;43.40;100930.28;5092415;28;20036;-70
2021/01/28 00:04:19;;;;;;;113.60;27.53;;;;;;;20.92;43.65;100937.84;5093015;28;20097;-71
2021/01/28 00:06:45;;;;;;;108.23;25.57;;;;;;;21.73;41.72;100934.94;5092866;28;20063;-71
2021/01/28 00:09:10;;;;;;;107.13;25.13;;;;;;;21.68;41.63;100935.75;5092338;28;20085;-71
2021/01/28 00:11:36;;;;;;;89.20;25.40;;;;;;;21.11;42.72;100937.41;5092538;28;20036;-71
2021/01/28 00:14:01;;;;;;;94.03;23.73;;;;;;;21.51;41.61;100927.78;5092142;28;20448;-70
2021/01/28 00:16:27;;;;;;;100.85;27.52;;;;;;;21.15;42.84;100930.34;5092688;28;20062;-71
2021/01/28 00:18:53;;;;;;;104.38;28.15;;;;;;;21.39;42.35;100919.00;5092217;28;20052;-62
2021/01/28 00:21:19;;;;;;;115.10;30.50;;;;;;;19.54;47.24;100910.00;5092712;28;20519;-70
2021/01/28 00:23:44;;;;;;;111.33;26.47;;;;;;;20.24;45.48;100894.94;5092806;28;20127;-70
2021/01/28 00:26:10;;;;;;;117.93;29.57;;;;;;;20.73;44.36;100878.44;5073356;28;20372;-70
2021/01/28 00:28:35;;;;;;;109.60;27.70;;;;;;;20.52;44.59;100877.50;5089992;28;20104;-70
2021/01/28 00:31:01;;;;;;;100.47;27.60;;;;;;;20.69;44.60;100881.97;5091539;28;20277;-69
2021/01/28 00:33:26;;;;;;;132.25;31.15;;;;;;;20.69;44.40;100869.19;5070754;28;20113;-66
2021/01/28 00:35:54;;;;;;;108.40;27.13;;;;;;;20.75;44.07;100861.88;5071988;28;20076;-70
2021/01/28 00:38:26;;;;;;;111.97;29.00;;;;;;;20.65;44.20;100859.94;5071988;28;20032;-70
2021/01/28 00:40:52;;;;;;;93.57;26.02;;;;;;;20.70;43.95;100859.16;5054218;28;20101;-69
2021/01/28 00:43:18;;;;;;;129.75;28.85;;;;;;;20.60;44.47;100857.19;5071147;28;20116;-71
2021/01/28 00:45:44;;;;;;;116.25;27.95;;;;;;;20.11;45.85;100861.75;5053990;28;20040;-69
2021/01/28 00:48:10;;;;;;;122.90;26.95;;;;;;;19.76;46.87;100855.72;5052846;28;20472;-71
2021/01/28 00:50:36;;;;;;;115.57;27.70;;;;;;;19.66;46.63;100855.59;5072140;28;20032;-72
2021/01/28 00:53:03;;;;;;;109.40;28.05;;;;;;;19.73;46.92;100852.69;5071727;28;20585;-71
2021/01/28 00:55:28;;;;;;;108.35;25.67;;;;;;;19.47;47.86;100857.84;5090695;28;20040;-71
2021/01/28 00:58:03;;;;;;;113.20;27.95;;;;;;;19.71;47.73;100841.28;5057856;28;20040;-70
2021/01/28 01:00:37;;;;;;;122.32;27.40;;;;;;;19.35;47.96;100841.72;5073669;28;20028;-71
2021/01/28 01:03:04;;;;;;;95.95;26.75;;;;;;;19.83;46.85;100846.53;5073227;28;20048;-71
2021/01/28 01:05:32;;;;;;;117.90;29.05;;;;;;;19.71;46.78;100833.13;5091776;28;20106;-72
2021/01/28 01:08:00;;;;;;;132.50;31.48;;;;;;;20.19;45.88;100825.16;5074680;28;20062;-69
2021/01/28 01:10:42;;;;;;;144.88;30.98;;;;;;;19.39;47.97;100812.22;5093731;28;20399;-71
2021/01/28 01:13:12;;;;;;;150.02;31.60;;;;;;;19.47;48.02;100806.31;5092824;28;20063;-71
2021/01/28 01:15:38;;;;;;;141.77;32.13;;;;;;;19.61;47.65;100799.41;5073904;28;20036;-71
2021/01/28 01:18:08;;;;;;;156.15;34.08;;;;;;;19.37;48.51;100811.63;5080614;28;20110;-71
2021/01/28 01:20:37;;;;;;;153.63;32.53;;;;;;;19.36;48.34;100797.28;5053484;28;20055;-71
2021/01/28 01:23:04;;;;;;;173.65;34.83;;;;;;;19.92;46.68;100794.28;5053019;28;20129;-72
2021/01/28 01:25:44;;;;;;;162.43;36.40;;;;;;;22.90;41.39;100782.53;5053754;28;20136;-71
2021/01/28 01:28:09;;;;;;;169.17;34.03;;;;;;;20.57;44.54;100796.03;5071052;28;20040;-71
2021/01/28 01:30:45;;;;;;;158.25;31.88;;;;;;;20.95;43.67;100789.72;5083951;28;20020;-71
2021/01/28 01:33:11;;;;;;;154.00;30.58;;;;;;;20.98;43.63;100792.69;5091083;28;20103;-70
2021/01/28 01:35:41;;;;;;;172.40;33.30;;;;;;;20.60;44.23;100795.50;5091551;28;20079;-71
2021/01/28 01:38:10;;;;;;;138.63;30.80;;;;;;;20.67;43.98;100792.56;5073241;28;20535;-70
2021/01/28 01:40:44;;;;;;;157.68;33.00;;;;;;;20.83;43.59;100781.78;5073451;28;20062;-71
2021/01/28 01:43:12;;;;;;;149.90;32.50;;;;;;;20.53;44.43;100775.91;5056185;28;20450;-71
2021/01/28 01:45:45;;;;;;;165.77;32.40;;;;;;;19.77;46.49;100775.13;5073314;28;20118;-71
2021/01/28 01:48:21;;;;;;;194.35;33.38;;;;;;;20.61;44.35;100767.25;5083954;28;20036;-71
2021/01/28 01:50:55;;;;;;;173.05;36.58;;;;;;;20.74;43.65;100751.56;5052677;28;20492;-71
2021/01/28 01:53:29;;;;;;;147.95;34.15;;;;;;;20.24;44.95;100756.47;5052717;28;20207;-70
2021/01/28 01:55:59;;;;;;;159.60;32.90;;;;;;;20.71;44.01;100750.19;5071524;28;20040;-71
2021/01/28 01:58:36;;;;;;;183.93;31.73;;;;;;;20.43;44.47;100752.25;5052521;28;20550;-71
2021/01/28 02:01:24;;;;;;;194.55;33.83;;;;;;;20.19;45.26;100747.22;5074579;28;20059;-71
2021/01/28 02:04:19;;;;;;;203.43;32.88;;;;;;;20.43;44.62;100741.38;5074011;28;20037;-71
2021/01/28 02:07:37;;;;;;;177.52;34.20;;;;;;;21.05;42.67;100736.19;5087870;28;20043;-70
2021/01/28 02:10:21;;;;;;;268.75;35.97;;;;;;;20.46;44.30;100740.84;5070582;28;20051;-71
2021/01/28 02:13:18;;;;;;;132.15;31.20;;;;;;;20.37;44.72;100737.00;5094173;28;20134;-71
2021/01/28 02:15:52;;;;;;;245.63;33.70;;;;;;;20.36;44.78;100716.38;5061085;28;20044;-71
2021/01/28 02:18:20;;;;;;;316.30;39.88;;;;;;;20.51;44.20;100707.47;5075676;28;20040;-71
2021/01/28 02:21:14;;;;;;;363.25;39.88;;;;;;;20.26;44.72;100700.00;5076340;28;20044;-70
2021/01/28 02:23:58;;;;;;;231.23;37.47;;;;;;;19.96;45.61;100687.91;5076898;28;20036;-70
2021/01/28 02:26:29;;;;;;;288.17;38.40;;;;;;;19.75;45.98;100674.19;5094200;28;20032;-70
2021/01/28 02:29:07;;;;;;;350.73;40.65;;;;;;;19.91;45.69;100670.53;5076049;28;20121;-69
2021/01/28 02:31:34;;;;;;;361.17;43.22;;;;;;;19.70;46.06;100666.81;5094642;28;20086;-71
2021/01/28 02:34:01;;;;;;;380.45;46.20;;;;;;;19.94;45.66;100649.38;5076494;28;20040;-71
2021/01/28 02:36:44;;;;;;;397.95;47.80;;;;;;;20.16;45.22;100650.03;5076450;28;20036;-72
2021/01/28 02:39:29;;;;;;;264.88;39.88;;;;;;;19.45;46.79;100648.47;5094092;28;20073;-70
2021/01/28 02:42:24;;;;;;;307.60;39.83;;;;;;;19.91;45.63;100653.41;5060039;28;20043;-70
2021/01/28 02:44:58;;;;;;;316.58;38.83;;;;;;;20.03;45.19;100636.91;5071899;28;20372;-71
2021/01/28 02:47:42;;;;;;;129.93;31.58;;;;;;;20.12;45.11;100640.78;5079269;28;20062;-69
2021/01/28 02:50:21;;;;;;;135.30;31.20;;;;;;;20.33;45.01;100641.66;5075383;28;20051;-70
2021/01/28 02:52:53;;;;;;;136.73;32.50;;;;;;;20.37;44.75;100633.81;5075815;28;20147;-68
2021/01/28 02:55:21;;;;;;;212.73;35.78;;;;;;;20.46;44.43;100645.78;5075545;28;20448;-70
2021/01/28 02:57:47;;;;;;;123.63;33.78;;;;;;;20.34;44.96;100639.78;5076244;28;20129;-70
2021/01/28 03:00:17;;;;;;;120.53;32.17;;;;;;;20.42;44.85;100644.69;5075420;28;20081;-70
2021/01/28 03:02:43;;;;;;;124.40;32.78;;;;;;;20.58;44.66;100647.47;5075663;28;20097;-71
2021/01/28 03:05:09;;;;;;;122.07;32.73;;;;;;;20.58;44.21;100640.09;5075001;28;20127;-64
2021/01/28 03:07:41;;;;;;;118.32;32.88;;;;;;;20.55;44.39;100631.69;5093948;28;20081;-71
2021/01/28 03:10:07;;;;;;;373.33;42.53;;;;;;;20.52;44.48;100635.75;5093650;28;20040;-70
2021/01/28 03:12:44;;;;;;;126.90;32.03;;;;;;;20.58;44.31;100631.16;5094081;28;20139;-71
2021/01/28 03:15:30;;;;;;;364.95;41.25;;;;;;;20.75;43.45;100637.16;5064159;28;20052;-71
2021/01/28 03:17:56;;;;;;;232.25;34.47;;;;;;;20.92;43.31;100634.25;5093830;28;20101;-73
2021/01/28 03:20:23;;;;;;;267.60;38.10;;;;;;;20.83;43.47;100629.59;5092921;28;20036;-71
2021/01/28 03:22:52;;;;;;;272.13;37.53;;;;;;;20.81;43.22;100637.22;5093475;28;20036;-71
2021/01/28 03:25:52;;;;;;;166.63;33.03;;;;;;;20.96;42.86;100618.19;5088742;28;20052;-73
2021/01/28 03:28:20;;;;;;;304.92;40.72;;;;;;;20.76;43.22;100606.19;5074732;28;20028;-72
2021/01/28 03:30:52;;;;;;;141.00;32.90;;;;;;;20.70;43.75;100598.31;5075642;28;20070;-71
2021/01/28 03:33:20;;;;;;;231.10;36.25;;;;;;;20.88;43.12;100599.72;5058066;28;20064;-72
2021/01/28 03:35:48;;;;;;;366.63;41.85;;;;;;;20.73;43.30;100593.13;5075070;28;20034;-73
2021/01/28 03:38:17;;;;;;;355.45;43.22;;;;;;;20.02;44.83;100597.28;5074473;28;20089;-70
2021/01/28 03:40:46;;;;;;;376.13;44.08;;;;;;;19.95;45.57;100592.09;5075270;28;20043;-71
2021/01/28 03:43:12;;;;;;;379.05;41.92;;;;;;;20.05;45.11;100588.59;5074525;28;20470;-68
2021/01/28 03:45:38;;;;;;;384.73;45.35;;;;;;;20.17;44.82;100575.63;5075197;28;20134;-71
2021/01/28 03:48:04;;;;;;;400.73;44.63;;;;;;;20.58;43.75;100574.13;5093361;28;20040;-70
2021/01/28 03:50:46;;;;;;;154.88;32.20;;;;;;;20.37;44.26;100575.94;5075021;28;20032;-72
2021/01/28 03:53:32;;;;;;;335.20;39.80;;;;;;;20.10;45.18;100563.38;5092396;28;20097;-71
2021/01/28 03:56:05;;;;;;;316.33;39.80;;;;;;;20.19;44.67;100573.47;5075202;28;20044;-71
2021/01/28 03:58:33;;;;;;;371.23;44.92;;;;;;;20.15;44.70;100561.50;5074452;28;20396;-70
2021/01/28 04:01:17;;;;;;;339.83;41.67;;;;;;;19.60;46.34;100564.50;5092618;28;20066;-70
2021/01/28 04:03:44;;;;;;;167.60;34.13;;;;;;;19.68;46.33;100546.09;5074867;28;20044;-71
2021/01/28 04:06:21;;;;;;;260.08;38.78;;;;;;;19.34;47.46;100558.91;5074219;28;20044;-71
2021/01/28 04:09:10;;;;;;;446.35;48.47;;;;;;;19.87;45.72;100560.84;5078046;28;20040;-70
2021/01/28 04:11:51;;;;;;;403.70;44.88;;;;;;;19.99;45.12;100538.13;5074807;28;20070;-70
2021/01/28 04:14:32;;;;;;;235.30;36.75;;;;;;;20.13;45.18;100541.97;5073798;28;20036;-70
2021/01/28 04:16:58;;;;;;;441.48;47.78;;;;;;;20.18;44.77;100533.84;5092462;28;20048;-70
2021/01/28 04:19:24;;;;;;;362.33;40.97;;;;;;;20.25;44.59;100530.88;5073464;28;20109;-70
2021/01/28 04:21:50;;;;;;;260.25;37.95;;;;;;;20.26;44.80;100515.38;5073662;28;20036;-70
2021/01/28 04:24:16;;;;;;;187.00;34.47;;;;;;;20.97;43.15;100507.56;5073787;28;20044;-69
2021/01/28 04:26:47;;;;;;;325.50;39.83;;;;;;;20.58;43.89;100500.78;5058327;28;20452;-71
2021/01/28 04:29:14;;;;;;;249.45;37.28;;;;;;;20.50;44.03;100491.25;5074325;28;20052;-71
2021/01/28 04:31:41;;;;;;;178.15;34.75;;;;;;;20.61;43.94;100486.63;5092525;28;20040;-71
2021/01/28 04:34:16;;;;;;;218.68;34.47;;;;;;;20.61;43.77;100490.16;5058299;28;20043;-60
2021/01/28 04:36:44;;;;;;;147.80;34.05;;;;;;;20.69;43.71;100472.50;5074050;28;20127;-70
2021/01/28 04:39:50;;;;;;;165.20;33.45;;;;;;;20.68;43.56;100476.31;5070072;28;20068;-71
2021/01/28 04:42:22;;;;;;;197.98;33.00;;;;;;;20.74;43.65;100469.78;5073496;28;20521;-63
2021/01/28 04:44:52;;;;;;;256.38;37.55;;;;;;;20.73;43.40;100459.19;5074052;28;20036;-71
2021/01/28 04:47:23;;;;;;;196.65;32.42;;;;;;;20.21;44.90;100448.34;5073408;28;20032;-70
2021/01/28 04:49:58;;;;;;;176.32;33.38;;;;;;;20.44;44.46;100452.41;5074744;28;20063;-71
2021/01/28 04:52:33;;;;;;;250.45;37.40;;;;;;;20.41;44.51;100444.81;5092400;28;20039;-71
2021/01/28 04:55:27;;;;;;;147.45;31.25;;;;;;;20.55;44.19;100433.41;5093421;28;20070;-60
2021/01/28 04:57:55;;;;;;;165.88;33.22;;;;;;;20.59;43.75;100431.78;5075404;28;20046;-71
2021/01/28 05:00:31;;;;;;;168.38;36.60;;;;;;;20.59;43.83;100424.41;5043309;28;20047;-71
2021/01/28 05:03:23;;;;;;;255.75;37.83;;;;;;;20.59;43.87;100410.84;5091249;28;20134;-66
2021/01/28 05:06:13;;;;;;;242.45;37.47;;;;;;;20.57;43.88;100410.31;5073780;28;20036;-71
2021/01/28 05:08:58;;;;;;;135.10;28.70;;;;;;;20.85;43.35;100404.59;5091906;28;20499;-71
2021/01/28 05:11:53;;;;;;;158.90;29.67;;;;;;;20.37;44.22;100381.25;5082144;28;20039;-71
2021/01/28 05:14:41;;;;;;;134.40;28.20;;;;;;;20.33;44.35;100369.31;5072771;28;20043;-71
2021/01/28 05:17:43;;;;;;;377.25;39.85;;;;;;;19.96;45.10;100367.69;5092639;28;20039;-70
2021/01/28 05:20:31;;;;;;;134.65;30.67;;;;;;;20.44;44.08;100365.50;5093332;28;20063;-70
2021/01/28 05:23:36;;;;;;;312.38;34.67;;;;;;;20.28;44.36;100355.72;5093778;28;20043;-70
2021/01/28 05:26:32;;;;;;;140.20;30.30;;;;;;;20.43;44.12;100353.00;5093738;28;20085;-70
2021/01/28 05:29:13;;;;;;;129.18;29.42;;;;;;;20.49;44.12;100349.19;5112309;28;20263;-71
2021/01/28 05:32:34;;;;;;;159.85;30.05;;;;;;;20.65;43.51;100330.16;5100635;28;20143;-71
2021/01/28 05:35:29;;;;;;;188.73;29.83;;;;;;;20.32;44.36;100319.63;5083835;28;20122;-70
2021/01/28 05:38:11;;;;;;;190.15;28.92;;;;;;;19.92;45.08;100318.56;5098073;28;20444;-71
2021/01/28 05:40:53;;;;;;;175.15;28.75;;;;;;;19.98;45.35;100311.22;5097436;28;20372;-71
2021/01/28 05:43:31;;;;;;;109.97;26.10;;;;;;;20.22;44.41;100306.06;5109920;28;20477;-71
2021/01/28 05:46:19;;;;;;;119.35;24.65;;;;;;;19.90;45.23;100288.97;5071878;28;20044;-71
2021/01/28 05:49:21;;;;;;;128.98;26.13;;;;;;;19.54;46.50;100297.06;5088964;28;20047;-70
2021/01/28 05:51:47;;;;;;;135.25;26.83;;;;;;;19.68;46.04;100293.84;5106108;28;20074;-70
2021/01/28 05:54:20;;;;;;;129.40;24.75;;;;;;;19.46;46.30;100284.03;5095445;28;20051;-71
2021/01/28 05:57:07;;;;;;;111.35;23.92;;;;;;;19.57;45.80;100277.53;5115730;28;20140;-71
2021/01/28 06:00:06;;;;;;;96.30;24.38;;;;;;;19.56;45.91;100277.81;5115181;28;20048;-71
2021/01/28 06:03:07;;;;;;;99.13;21.30;;;;;;;18.77;48.50;100268.63;5114820;28;20047;-71
2021/01/28 06:05:59;;;;;;;102.32;21.25;;;;;;;18.87;47.49;100261.63;5099276;28;20113;-71
2021/01/28 06:08:45;;;;;;;80.93;19.20;;;;;;;19.50;46.22;100255.31;5096972;28;20186;-70
2021/01/28 06:11:41;;;;;;;77.65;20.83;;;;;;;19.32;46.76;100253.94;5097500;28;20494;-71
2021/01/28 06:14:37;;;;;;;80.05;19.75;;;;;;;18.89;47.82;100243.22;5115790;28;20077;-71
2021/01/28 06:18:01;;;;;;;67.78;17.08;;;;;;;19.40;47.40;100244.47;5102911;28;20047;-65
2021/01/28 06:20:49;;;;;;;64.53;15.10;;;;;;;19.62;46.14;100234.16;5097018;28;20048;-70
2021/01/28 06:23:43;;;;;;;68.23;17.67;;;;;;;19.26;46.22;100231.41;5076336;28;20341;-70
2021/01/28 06:26:49;;;;;;;69.95;16.65;;;;;;;19.22;46.91;100229.50;5065744;28;20044;-71
2021/01/28 06:30:02;;;;;;;61.22;15.95;;;;;;;20.04;44.54;100220.59;5076575;28;20487;-71
2021/01/28 06:32:56;;;;;;;52.42;13.50;;;;;;;19.76;44.97;100225.47;5050521;28;20032;-70
2021/01/28 06:36:10;;;;;;;50.58;14.15;;;;;;;19.66;44.77;100217.34;5076211;28;20249;-71
2021/01/28 06:39:02;;;;;;;59.53;14.80;;;;;;;18.82;47.27;100210.16;5115102;28;20416;-71
2021/01/28 06:42:24;;;;;;;50.63;13.45;;;;;;;19.23;46.53;100199.44;5108014;28;20773;-71
2021/01/28 06:45:06;;;;;;;45.55;14.20;;;;;;;19.35;45.73;100180.19;5095453;28;20039;-69
2021/01/28 06:47:58;;;;;;;55.60;15.00;;;;;;;19.74;45.03;100195.09;5096664;28;20444;-70
2021/01/28 06:50:45;;;;;;;44.85;12.45;;;;;;;19.31;46.37;100184.53;5079245;28;20109;-70
2021/01/28 06:53:28;;;;;;;55.20;14.70;;;;;;;19.82;44.77;100175.53;5093050;28;20194;-71
2021/01/28 06:56:38;;;;;;;43.05;13.20;;;;;;;19.74;44.97;100173.38;5108015;28;20632;-69
2021/01/28 06:59:45;;;;;;;41.78;13.10;;;;;;;19.74;44.98;100160.66;5090756;28;20058;-69
2021/01/28 07:02:27;;;;;;;46.83;13.48;;;;;;;19.58;45.16;100151.69;5077636;28;20036;-69
2021/01/28 07:05:28;;;;;;;38.45;12.50;;;;;;;19.41;45.44;100148.47;5056012;28;20040;-71
2021/01/28 07:08:04;;;;;;;35.78;11.10;;;;;;;19.35;45.03;100134.91;5090871;28;20534;-71
2021/01/28 07:10:50;;;;;;;32.22;12.18;;;;;;;19.57;45.08;100120.25;5080611;28;20055;-71
2021/01/28 07:13:38;;;;;;;33.40;10.55;;;;;;;19.26;45.97;100116.75;5091588;28;20052;-70
2021/01/28 07:16:28;;;;;;;34.60;11.38;;;;;;;19.31;45.77;100108.63;5078982;28;20044;-70
2021/01/28 07:19:00;;;;;;;36.75;12.52;;;;;;;19.41;45.59;100100.47;5093652;28;20047;-70
2021/01/28 07:21:35;;;;;;;33.17;10.13;;;;;;;18.88;46.85;100088.00;5095111;28;20112;-72
2021/01/28 07:24:19;;;;;;;34.85;10.57;;;;;;;19.23;46.04;100085.59;5082104;28;20036;-71
2021/01/28 07:27:18;;;;;;;28.80;8.88;;;;;;;19.12;46.33;100083.97;5101139;28;20032;-70
2021/01/28 07:29:43;;;;;;;28.92;9.50;;;;;;;19.13;46.27;100080.16;5092615;28;20052;-72
2021/01/28 07:32:35;;;;;;;27.73;9.50;;;;;;;19.15;45.79;100072.59;5071370;28;20403;-67
2021/01/28 07:35:35;;;;;;;20.30;7.80;;;;;;;19.21;45.83;100068.78;5073129;28;20036;-69
2021/01/28 07:38:29;;;;;;;22.85;8.43;;;;;;;18.94;46.69;100069.84;5074518;28;20464;-68
2021/01/28 07:41:14;;;;;;;28.90;9.45;;;;;;;18.90;46.69;100071.44;5093071;28;20180;-68
2021/01/28 07:44:24;;;;;;;19.02;8.35;;;;;;;19.02;47.11;100061.22;5077674;28;20410;-69
2021/01/28 07:46:58;;;;;;;19.98;8.48;;;;;;;19.00;46.11;100059.84;5073642;28;20289;-69
2021/01/28 07:49:30;;;;;;;25.55;9.27;;;;;;;18.86;46.68;100054.94;5074259;28;20059;-68
2021/01/28 07:52:40;;;;;;;22.08;8.73;;;;;;;18.97;46.26;100058.47;5057032;28;20052;-70
2021/01/28 07:55:35;;;;;;;21.38;7.88;;;;;;;18.59;47.02;100049.75;5092381;28;20474;-69
2021/01/28 07:58:03;;;;;;;20.58;7.47;;;;;;;19.14;45.72;100049.25;5074768;28;20048;-70
2021/01/28 08:00:38;;;;;;;22.35;8.43;;;;;;;19.37;45.30;100047.91;5074582;28;20028;-69
2021/01/28 08:03:13;;;;;;;26.27;9.05;;;;;;;19.12;45.78;100037.88;5091943;28;20044;-69
2021/01/28 08:05:39;;;;;;;22.23;8.10;;;;;;;19.11;45.47;100049.81;5074224;28;20044;-69
2021/01/28 08:08:13;;;;;;;29.55;9.98;;;;;;;19.27;45.64;100051.44;5077789;28;20066;-69
2021/01/28 08:10:44;;;;;;;23.83;8.38;;;;;;;19.10;45.91;100045.47;5084689;28;20119;-69
2021/01/28 08:13:19;;;;;;;24.80;8.82;;;;;;;18.99;46.09;100031.94;5099136;28;20120;-69
2021/01/28 08:15:53;;;;;;;24.52;7.93;;;;;;;18.94;46.17;100029.22;5100502;28;20126;-69
2021/01/28 08:18:25;;;;;;;21.02;8.40;;;;;;;18.51;47.36;100026.75;5098596;28;20115;-69
2021/01/28 08:21:11;;;;;;;25.92;9.05;;;;;;;18.90;46.45;100018.09;5100323;28;20036;-69
2021/01/28 08:23:39;;;;;;;27.17;8.90;;;;;;;19.17;46.01;100021.66;5094759;28;20081;-65
2021/01/28 08:26:13;;;;;;;17.63;8.07;;;;;;;18.87;46.98;100009.69;5100579;28;20069;-68
2021/01/28 08:28:42;;;;;;;20.50;8.55;;;;;;;19.09;46.05;100005.91;5098295;28;20035;-68
2021/01/28 08:31:23;;;;;;;27.25;8.90;;;;;;;19.47;44.96;100007.19;5103256;28;20028;-69
2021/01/28 08:33:55;;;;;;;17.33;7.25;;;;;;;19.16;45.67;100004.56;5105740;28;20478;-70
2021/01/28 08:36:26;;;;;;;19.25;6.72;;;;;;;18.84;46.79;100002.13;5078037;28;20039;-71
2021/01/28 08:39:10;;;;;;;18.02;7.15;;;;;;;18.66;47.11;99996.16;5106576;28;20142;-72
2021/01/28 08:41:36;;;;;;;16.98;6.50;;;;;;;19.16;45.79;99999.13;5098403;28;20069;-63
2021/01/28 08:44:05;;;;;;;14.73;6.50;;;;;;;19.38;45.10;99995.28;5093067;28;20032;-71
2021/01/28 08:46:31;;;;;;;21.70;6.38;;;;;;;19.75;44.07;99999.53;5092508;28;20059;-70
2021/01/28 08:49:20;;;;;;;15.23;6.55;;;;;;;19.20;45.02;100002.13;5073653;28;20442;-70
2021/01/28 08:51:58;;;;;;;13.98;5.68;;;;;;;19.66;44.29;99989.53;5078308;28;20048;-69
2021/01/28 08:54:40;;;;;;;12.35;6.63;;;;;;;19.44;44.39;99982.53;5081144;28;20036;-70
2021/01/28 08:57:10;;;;;;;11.00;5.45;;;;;;;19.08;45.49;99988.03;5082447;28;20032;-68
2021/01/28 08:59:39;;;;;;;14.20;6.18;;;;;;;19.24;45.25;99984.22;5095043;28;20036;-62
2021/01/28 09:02:05;;;;;;;13.40;5.70;;;;;;;18.98;45.68;99984.28;5100276;28;20093;-70
2021/01/28 09:04:40;;;;;;;21.53;6.33;;;;;;;19.30;45.16;99979.59;5092205;28;20383;-70
2021/01/28 09:07:05;;;;;;;14.43;6.38;;;;;;;18.72;46.37;99978.00;5092171;28;20107;-69
2021/01/28 09:09:34;;;;;;;17.30;7.40;;;;;;;19.13;45.66;99955.50;5091277;28;20046;-67
2021/01/28 09:12:21;;;;;;;17.65;6.82;;;;;;;18.97;45.87;99952.81;5056571;28;20360;-68
2021/01/28 09:14:47;;;;;;;14.18;6.50;;;;;;;18.74;46.58;99946.88;5091515;28;20044;-68
2021/01/28 09:17:31;;;;;;;16.73;7.60;;;;;;;18.88;46.40;99939.00;5091404;28;20065;-70
2021/01/28 09:19:59;;;;;;;14.48;6.55;;;;;;;18.55;47.49;99935.75;5090873;28;20364;-70
2021/01/28 09:22:37;;;;;;;16.25;7.05;;;;;;;18.10;48.73;99929.22;5073954;28;20036;-70
2021/01/28 09:25:20;;;;;;;20.52;7.47;;;;;;;18.66;47.07;99933.06;5057331;28;20399;-69
2021/01/28 09:28:00;;;;;;;13.93;6.22;;;;;;;18.49;47.35;99934.16;5091398;28;20043;-68
2021/01/28 09:30:34;;;;;;;13.80;6.28;;;;;;;18.56;46.84;99933.88;5091677;28;20040;-70
2021/01/28 09:33:00;;;;;;;16.17;5.82;;;;;;;18.68;47.17;99930.91;5072786;28;20052;-70
2021/01/28 09:35:27;;;;;;;13.10;6.47;;;;;;;19.04;45.48;99930.88;5091841;28;20105;-69
2021/01/28 09:38:01;;;;;;;16.35;6.13;;;;;;;19.00;45.69;99936.03;5091123;28;20032;-69
2021/01/28 09:40:37;;;;;;;12.27;5.93;;;;;;;19.17;45.53;99945.75;5056747;28;20043;-68
2021/01/28 09:43:31;;;;;;;16.55;6.10;;;;;;;18.84;46.02;99931.69;5091261;28;20060;-69
2021/01/28 09:46:09;;;;;;;12.88;5.97;;;;;;;18.87;46.08;99929.25;5072149;28;20455;-69
2021/01/28 09:48:34;;;;;;;21.08;6.45;;;;;;;18.75;46.53;99934.13;5091713;28;20044;-68
2021/01/28 09:51:03;;;;;;;11.43;4.87;;;;;;;18.83;46.27;99930.06;5091000;28;20032;-68
2021/01/28 09:53:29;;;;;;;13.82;5.47;;;;;;;19.24;45.28;99935.44;5091351;28;20040;-69
2021/01/28 09:55:54;;;;;;;18.45;7.05;;;;;;;19.18;45.34;99941.97;5090903;28;20075;-68
2021/01/28 09:58:20;;;;;;;12.33;5.20;;;;;;;19.35;44.79;99934.31;5072623;28;20119;-69
2021/01/28 10:00:45;;;;;;;11.03;5.23;;;;;;;19.21;45.23;99936.00;5090277;28;20464;-68
2021/01/28 10:03:13;;;;;;;26.67;6.50;;;;;;;19.42;44.72;99931.31;5081836;28;20037;-69
2021/01/28 10:05:39;;;;;;;12.63;5.43;;;;;;;19.24;45.17;99930.00;5070351;28;20052;-68
2021/01/28 10:08:05;;;;;;;12.30;5.40;;;;;;;19.23;45.12;99925.69;5071617;28;20469;-69
2021/01/28 10:10:33;;;;;;;9.27;4.68;;;;;;;19.33;44.70;99914.00;5071410;28;20035;-70
2021/01/28 10:13:04;;;;;;;12.45;5.50;;;;;;;18.19;47.82;99906.78;5070669;28;20043;-69
2021/01/28 10:15:30;;;;;;;16.40;5.60;;;;;;;19.05;46.18;99905.41;5053286;28;20047;-65
2021/01/28 10:17:56;;;;;;;18.20;5.60;;;;;;;19.12;45.76;99905.94;5070379;28;20053;-70
2021/01/28 10:20:23;;;;;;;10.65;5.70;;;;;;;19.11;45.86;99898.06;5087984;28;20549;-70
2021/01/28 10:22:50;;;;;;;11.48;5.32;;;;;;;19.17;45.32;99891.56;5059732;28;20468;-70
2021/01/28 10:25:18;;;;;;;16.23;5.53;;;;;;;18.98;46.16;99894.00;5095083;28;20052;-70
2021/01/28 10:27:44;;;;;;;12.02;6.10;;;;;;;18.77;46.39;99889.47;5094160;28;20046;-70
2021/01/28 10:30:13;;;;;;;10.47;6.33;;;;;;;18.88;46.15;99894.84;5094841;28;20032;-69
2021/01/28 10:32:41;;;;;;;11.57;5.90;;;;;;;18.77;46.78;99892.16;5093110;28;20344;-60
2021/01/28 10:35:07;;;;;;;13.02;6.22;;;;;;;18.72;46.56;99892.19;5094788;28;20112;-71
2021/01/28 10:37:32;;;;;;;11.05;5.95;;;;;;;18.71;46.92;99890.56;5076364;28;20040;-70
2021/01/28 10:39:58;;;;;;;12.83;6.20;;;;;;;18.94;45.89;99888.34;5093989;28;20047;-69
2021/01/28 10:42:38;;;;;;;14.67;7.13;;;;;;;19.01;45.77;99897.00;5097332;28;20522;-69
2021/01/28 10:45:14;;;;;;;32.63;9.02;;;;;;;19.26;45.04;99906.16;5100944;28;20126;-69
2021/01/28 10:47:39;;;;;;;18.88;8.27;;;;;;;19.09;45.49;99892.94;5102043;28;20480;-60
2021/01/28 10:50:06;;;;;;;20.52;9.95;;;;;;;18.96;45.49;99902.44;5100429;28;20035;-68
2021/01/28 10:52:32;;;;;;;16.38;8.93;;;;;;;19.29;45.16;99904.81;5086170;28;20023;-69
2021/01/28 10:54:57;;;;;;;19.50;10.03;;;;;;;19.39;44.85;99898.53;5085443;28;20032;-70
2021/01/28 10:57:23;;;;;;;18.93;10.00;;;;;;;19.23;45.13;99895.88;5103030;28;20020;-69
2021/01/28 10:59:48;;;;;;;21.63;10.80;;;;;;;19.25;45.24;99893.69;5081255;28;20024;-69
2021/01/28 11:02:14;;;;;;;17.13;9.50;;;;;;;18.97;45.72;99885.09;5103117;28;20509;-70
2021/01/28 11:04:40;;;;;;;20.50;10.07;;;;;;;19.04;45.54;99896.47;5104613;28;20122;-69
2021/01/28 11:07:05;;;;;;;21.35;9.88;;;;;;;19.26;44.79;99899.91;5102576;28;20330;-69
2021/01/28 11:09:31;;;;;;;21.47;11.83;;;;;;;19.54;44.31;99895.72;5085810;28;20032;-69
2021/01/28 11:11:56;;;;;;;18.80;10.40;;;;;;;19.41;44.55;99918.84;5103309;28;20388;-69
2021/01/28 11:14:23;;;;;;;19.23;10.57;;;;;;;19.63;43.97;99888.66;5103331;28;20117;-70
2021/01/28 11:16:48;;;;;;;20.25;10.63;;;;;;;19.34;45.14;99886.59;5096833;28;20036;-69
2021/01/28 11:19:14;;;;;;;16.57;9.43;;;;;;;19.06;45.82;99882.66;5077327;28;20139;-70
2021/01/28 11:21:39;;;;;;;22.17;10.50;;;;;;;19.46;44.94;99888.97;5092976;28;20032;-68
2021/01/28 11:24:05;;;;;;;20.60;10.93;;;;;;;19.13;45.61;99871.50;5057366;28;20032;-68
2021/01/28 11:26:31;;;;;;;18.33;10.18;;;;;;;18.78;47.06;99864.00;5075290;28;20040;-69
2021/01/28 11:28:56;;;;;;;19.15;9.90;;;;;;;18.69;47.41;99864.81;5092830;28;20036;-69
2021/01/28 11:31:25;;;;;;;18.07;9.60;;;;;;;18.91;46.23;99865.31;5092802;28;20075;-70
2021/01/28 11:33:50;;;;;;;17.73;8.95;;;;;;;19.32;45.26;99872.50;5073818;28;20073;-63
2021/01/28 11:36:16;;;;;;;18.77;8.93;;;;;;;19.59;44.90;99876.72;5090652;28;20036;-70
2021/01/28 11:38:41;;;;;;;17.77;9.13;;;;;;;19.22;45.93;99879.88;5093342;28;20047;-69
2021/01/28 11:41:07;;;;;;;13.57;7.43;;;;;;;19.03;45.96;99881.28;5092838;28;20484;-69
2021/01/28 11:43:33;;;;;;;18.67;8.10;;;;;;;19.10;46.12;99878.31;5093202;28;20099;-69
2021/01/28 11:45:59;;;;;;;18.65;8.98;;;;;;;18.98;45.93;99883.16;5091790;28;20059;-69
2021/01/28 11:48:24;;;;;;;16.25;8.02;;;;;;;19.39;45.04;99866.00;5092811;28;20472;-68
2021/01/28 11:50:50;;;;;;;17.00;8.60;;;;;;;18.86;46.37;99851.78;5091743;28;20107;-68